Garrettsville, Ohio
Current Conditions -  °F | °C
As of 12:59 PM on Thursday 30 Oct 2014 (Local Time) from KPOV Reporting Station
Overcast Overcast  
Wind Chill: 44°   Ceiling: 3500
Heat Index: 47°   Visibility: 10mi
Dew Point: 36°   Wind: 5mph
Humidity: 67%   Direction: 310°NW
Pressure: 30.1"   Gusts: NA
Location:  41.28°N, 81.1°W
Report Text: KPOV 301659Z AUTO 31004KT 10SM OVC035 08/02 A3010 RMK AO2 T00810023
Loading
Personal Weather Stations






























Interactive Weather Map
Tropical Storm Tracking
New forecast layout! Learn more

10-Day Weather Forecast

Advertisements
Track Severe Weather on mobile